createdAt,value
2018-09-11T00:02:26.180Z,17.21
2018-09-11T00:04:54.872Z,17.06
2018-09-11T00:07:23.468Z,17.05
2018-09-11T00:09:52.102Z,16.90
2018-09-11T00:12:20.719Z,16.80
2018-09-11T00:14:49.336Z,16.72
2018-09-11T00:17:18.124Z,16.70
2018-09-11T00:19:46.736Z,16.76
2018-09-11T00:22:15.412Z,16.77
2018-09-11T00:24:43.995Z,16.83
2018-09-11T00:27:12.697Z,16.82
2018-09-11T00:29:41.305Z,16.85
2018-09-11T00:32:09.908Z,16.84
2018-09-11T00:34:38.820Z,16.81
2018-09-11T00:37:07.771Z,16.80
2018-09-11T00:39:36.389Z,16.78
2018-09-11T00:42:05.024Z,16.78
2018-09-11T00:44:33.616Z,16.78
2018-09-11T00:47:02.520Z,16.75
2018-09-11T00:49:31.144Z,16.75
2018-09-11T00:51:59.831Z,16.80
2018-09-11T00:54:28.670Z,16.83
2018-09-11T00:56:57.261Z,16.88
2018-09-11T00:59:25.888Z,16.92
2018-09-11T01:01:54.500Z,16.92
2018-09-11T01:04:23.132Z,16.91
2018-09-11T01:06:51.753Z,16.90
2018-09-11T01:09:20.411Z,16.88
2018-09-11T01:11:49.051Z,16.88
2018-09-11T01:14:17.641Z,16.87
2018-09-11T01:16:46.384Z,16.86
2018-09-11T01:19:15.111Z,16.86
2018-09-11T01:21:43.749Z,16.92
2018-09-11T01:24:12.557Z,17.24
2018-09-11T01:26:41.642Z,17.18
2018-09-11T01:29:10.692Z,17.12
2018-09-11T01:31:39.286Z,17.11
2018-09-11T01:34:08.552Z,17.05
2018-09-11T01:36:37.788Z,17.01
2018-09-11T01:39:08.837Z,16.98
2018-09-11T01:41:38.141Z,16.94
2018-09-11T01:44:07.036Z,16.90
2018-09-11T01:46:35.900Z,16.85
2018-09-11T01:49:04.721Z,16.91
2018-09-11T01:51:33.613Z,16.89
2018-09-11T01:54:02.284Z,16.83
2018-09-11T01:56:30.896Z,16.79
2018-09-11T01:59:00.076Z,16.72
2018-09-11T02:01:28.668Z,16.69
2018-09-11T02:03:57.289Z,16.64
2018-09-11T02:06:28.021Z,16.59
2018-09-11T02:08:57.102Z,16.58
2018-09-11T02:11:25.696Z,16.60
2018-09-11T02:13:54.284Z,16.74
2018-09-11T02:16:23.018Z,16.72
2018-09-11T02:18:51.797Z,16.71
2018-09-11T02:21:20.396Z,16.72
2018-09-11T02:23:49.015Z,16.74
2018-09-11T02:26:17.634Z,16.76
2018-09-11T02:28:46.268Z,17.03
2018-09-11T02:31:14.865Z,17.07
2018-09-11T02:33:43.480Z,16.99
2018-09-11T02:36:12.077Z,17.08
2018-09-11T02:38:40.674Z,17.09
2018-09-11T02:41:09.298Z,17.10
2018-09-11T02:43:37.892Z,17.13
2018-09-11T02:46:06.501Z,17.09
2018-09-11T02:48:35.080Z,17.05
2018-09-11T02:51:03.680Z,17.08
2018-09-11T02:53:32.366Z,17.20
2018-09-11T02:56:00.948Z,17.30
2018-09-11T02:58:29.556Z,17.34
2018-09-11T03:00:58.196Z,17.22
2018-09-11T03:03:26.768Z,17.24
2018-09-11T03:05:55.845Z,17.31
2018-09-11T03:08:24.445Z,17.28
2018-09-11T03:10:53.072Z,17.27
2018-09-11T03:13:21.664Z,17.34
2018-09-11T03:15:50.243Z,17.16
2018-09-11T03:18:18.868Z,17.13
2018-09-11T03:20:47.450Z,17.13
2018-09-11T03:23:16.084Z,17.20
2018-09-11T03:25:44.688Z,17.16
2018-09-11T03:28:13.268Z,17.08
2018-09-11T03:30:41.915Z,17.03
2018-09-11T03:33:10.508Z,17.05
2018-09-11T03:35:39.085Z,17.07
2018-09-11T03:38:07.710Z,16.93
2018-09-11T03:40:36.352Z,16.92
2018-09-11T03:43:05.079Z,16.88
2018-09-11T03:45:33.786Z,16.82
2018-09-11T03:48:02.396Z,16.78
2018-09-11T03:50:31.012Z,16.79
2018-09-11T03:52:59.605Z,16.86
2018-09-11T03:55:28.219Z,16.87
2018-09-11T03:57:56.830Z,16.88
2018-09-11T04:00:25.519Z,16.89
2018-09-11T04:02:54.129Z,16.87
2018-09-11T04:05:23.196Z,16.95
2018-09-11T04:07:51.969Z,17.01
2018-09-11T04:10:20.551Z,16.87
2018-09-11T04:12:49.124Z,16.79
2018-09-11T04:15:17.705Z,16.77
2018-09-11T04:17:46.292Z,16.78
2018-09-11T04:20:14.938Z,16.87
2018-09-11T04:22:43.561Z,16.96
2018-09-11T04:25:12.189Z,17.13
2018-09-11T04:27:40.800Z,17.12
2018-09-11T04:30:09.695Z,17.08
2018-09-11T04:32:38.271Z,16.89
2018-09-11T04:35:07.312Z,16.84
2018-09-11T04:37:36.004Z,16.73
2018-09-11T04:40:04.733Z,16.65
2018-09-11T04:42:33.380Z,16.61
2018-09-11T04:45:01.976Z,16.62
2018-09-11T04:47:30.561Z,16.72
2018-09-11T04:49:59.190Z,16.78
2018-09-11T04:52:27.935Z,16.92
2018-09-11T04:54:56.572Z,17.03
2018-09-11T04:57:25.172Z,17.14
2018-09-11T04:59:53.755Z,17.27
2018-09-11T05:02:22.448Z,17.27
2018-09-11T05:04:51.045Z,17.38
2018-09-11T05:07:19.670Z,17.38
2018-09-11T05:09:48.275Z,17.29
2018-09-11T05:12:16.871Z,17.42
2018-09-11T05:14:45.490Z,17.47
2018-09-11T05:17:14.118Z,17.53
2018-09-11T05:19:42.700Z,17.54
2018-09-11T05:22:11.303Z,17.49
2018-09-11T05:24:39.996Z,17.56
2018-09-11T05:27:08.714Z,17.51
2018-09-11T05:29:37.379Z,17.40
2018-09-11T05:32:06.044Z,17.27
2018-09-11T05:34:34.684Z,17.16
2018-09-11T05:37:03.282Z,17.38
2018-09-11T05:39:31.912Z,17.39
2018-09-11T05:42:00.529Z,17.27
2018-09-11T05:44:29.162Z,17.21
2018-09-11T05:46:57.770Z,17.34
2018-09-11T05:49:26.362Z,17.38
2018-09-11T05:51:54.991Z,17.35
2018-09-11T05:54:23.659Z,17.32
2018-09-11T05:56:52.262Z,17.33
2018-09-11T05:59:20.841Z,17.26
2018-09-11T06:01:49.688Z,17.19
2018-09-11T06:04:18.356Z,17.16
2018-09-11T06:06:46.957Z,17.13
2018-09-11T06:09:15.540Z,17.15
2018-09-11T06:11:44.154Z,17.17
2018-09-11T06:14:12.752Z,17.25
2018-09-11T06:16:41.491Z,17.40
2018-09-11T06:19:10.107Z,17.55
2018-09-11T06:21:38.688Z,17.49
2018-09-11T06:24:07.329Z,17.42
2018-09-11T06:26:35.937Z,17.45
2018-09-11T06:29:04.623Z,17.51
2018-09-11T06:31:33.375Z,17.54
2018-09-11T06:34:02.003Z,17.67
2018-09-11T06:36:30.594Z,17.74
2018-09-11T06:38:59.193Z,17.82
2018-09-11T06:41:27.828Z,17.88
2018-09-11T06:43:56.778Z,17.97
2018-09-11T06:46:25.687Z,17.98
2018-09-11T06:48:54.336Z,18.07
2018-09-11T06:51:22.949Z,18.14
2018-09-11T06:53:51.603Z,18.22
2018-09-11T06:56:20.232Z,18.34
2018-09-11T06:58:48.891Z,18.50
2018-09-11T07:01:17.697Z,18.61
2018-09-11T07:03:46.308Z,18.74
2018-09-11T07:06:15.217Z,18.85
2018-09-11T07:08:43.820Z,19.02
2018-09-11T07:11:12.510Z,19.21
2018-09-11T07:13:41.196Z,19.43
2018-09-11T07:16:09.814Z,19.60
2018-09-11T07:18:38.444Z,19.70
2018-09-11T07:21:07.065Z,19.87
2018-09-11T07:23:35.671Z,20.05
2018-09-11T07:26:04.330Z,20.14
2018-09-11T07:28:33.066Z,20.32
2018-09-11T07:31:01.744Z,20.36
2018-09-11T07:33:30.335Z,20.50
2018-09-11T07:35:58.965Z,20.59
2018-09-11T07:38:27.710Z,20.61
2018-09-11T07:40:56.344Z,20.78
2018-09-11T07:43:24.952Z,21.03
2018-09-11T07:45:53.585Z,21.23
2018-09-11T07:48:22.360Z,21.43
2018-09-11T07:50:51.544Z,21.68
2018-09-11T07:53:20.729Z,22.00
2018-09-11T07:55:50.204Z,22.39
2018-09-11T07:58:19.673Z,22.89
2018-09-11T08:00:49.438Z,23.34
2018-09-11T08:03:18.646Z,23.74
2018-09-11T08:05:47.831Z,24.08
2018-09-11T08:08:17.027Z,24.16
2018-09-11T08:10:46.496Z,24.21
2018-09-11T08:13:15.782Z,24.36
2018-09-11T08:15:45.121Z,24.51
2018-09-11T08:18:14.308Z,24.59
2018-09-11T08:20:43.514Z,24.67
2018-09-11T08:23:12.712Z,24.71
2018-09-11T08:25:41.962Z,24.84
2018-09-11T08:28:11.231Z,24.96
2018-09-11T08:30:40.483Z,25.19
2018-09-11T08:33:09.693Z,25.61
2018-09-11T08:35:38.896Z,26.28
2018-09-11T08:38:08.204Z,27.00
2018-09-11T08:40:37.395Z,27.98
2018-09-11T08:43:06.589Z,28.73
2018-09-11T08:45:35.801Z,29.14
2018-09-11T08:48:05.036Z,29.42
2018-09-11T08:50:34.274Z,29.11
2018-09-11T08:53:03.457Z,28.99
2018-09-11T08:55:32.684Z,28.95
2018-09-11T08:58:01.982Z,28.96
2018-09-11T09:00:31.281Z,28.94
2018-09-11T09:03:00.505Z,28.92
2018-09-11T09:05:29.733Z,28.71
2018-09-11T09:07:58.924Z,28.38
2018-09-11T09:10:28.106Z,28.34
2018-09-11T09:12:57.352Z,28.49
2018-09-11T09:15:26.626Z,28.60
2018-09-11T09:17:56.050Z,28.59
2018-09-11T09:20:25.273Z,28.48
2018-09-11T09:22:54.522Z,28.57
2018-09-11T09:25:23.726Z,28.45
2018-09-11T09:27:52.946Z,28.50
2018-09-11T09:30:22.124Z,28.28
2018-09-11T09:32:51.326Z,28.32
2018-09-11T09:35:20.537Z,28.53
2018-09-11T09:37:49.771Z,28.80
2018-09-11T09:40:19.039Z,29.06
2018-09-11T09:42:48.305Z,29.23
2018-09-11T09:45:17.526Z,29.28
2018-09-11T09:47:46.890Z,29.26
2018-09-11T09:50:16.081Z,29.12
2018-09-11T09:52:45.340Z,29.26
2018-09-11T09:55:14.564Z,29.45
2018-09-11T09:57:43.800Z,29.68
2018-09-11T10:00:15.563Z,29.97
2018-09-11T10:02:44.756Z,30.18
2018-09-11T10:05:13.921Z,30.35
2018-09-11T10:07:44.833Z,30.52
2018-09-11T10:10:14.069Z,30.62
2018-09-11T10:12:43.237Z,30.55
2018-09-11T10:15:12.467Z,30.63
2018-09-11T10:17:41.739Z,30.72
2018-09-11T10:20:11.107Z,30.77
2018-09-11T10:22:40.409Z,30.09
2018-09-11T10:25:09.937Z,29.63
2018-09-11T10:27:39.166Z,29.64
2018-09-11T10:30:08.921Z,29.85
2018-09-11T10:32:41.040Z,30.16
2018-09-11T10:35:10.281Z,30.11
2018-09-11T10:37:39.487Z,29.93
2018-09-11T10:40:08.708Z,30.00
2018-09-11T10:42:37.921Z,30.08
2018-09-11T10:45:07.223Z,29.99
2018-09-11T10:47:36.596Z,29.70
2018-09-11T10:50:05.858Z,29.74
2018-09-11T10:52:35.044Z,29.76
2018-09-11T10:55:04.562Z,29.94
2018-09-11T10:57:34.179Z,30.01
2018-09-11T11:00:03.648Z,30.02
2018-09-11T11:02:32.910Z,30.08
2018-09-11T11:05:04.767Z,30.14
2018-09-11T11:07:34.134Z,30.29
2018-09-11T11:10:04.139Z,30.50
2018-09-11T11:12:33.547Z,30.68
2018-09-11T11:15:03.034Z,30.51
2018-09-11T11:17:32.502Z,30.02
2018-09-11T11:20:01.890Z,30.09
2018-09-11T11:22:31.279Z,30.17
2018-09-11T11:25:00.636Z,30.11
2018-09-11T11:27:30.001Z,30.15
2018-09-11T11:29:59.290Z,30.03
2018-09-11T11:32:29.172Z,30.18
2018-09-11T11:34:58.493Z,30.18
2018-09-11T11:37:30.656Z,30.14
2018-09-11T11:39:59.945Z,30.26
2018-09-11T11:42:29.436Z,30.31
2018-09-11T11:44:58.913Z,30.44
2018-09-11T11:47:28.294Z,30.37
2018-09-11T11:49:57.579Z,30.14
2018-09-11T11:52:26.868Z,29.84
2018-09-11T11:54:56.167Z,29.82
2018-09-11T11:57:25.681Z,29.79
2018-09-11T11:59:54.987Z,29.66
2018-09-11T12:02:24.366Z,29.44
2018-09-11T12:04:54.343Z,29.14
2018-09-11T12:07:23.647Z,28.72
2018-09-11T12:09:53.019Z,28.53
2018-09-11T12:12:22.377Z,28.66
2018-09-11T12:14:51.932Z,28.74
2018-09-11T12:17:21.196Z,28.65
2018-09-11T12:19:50.502Z,28.55
2018-09-11T12:22:19.798Z,28.17
2018-09-11T12:24:49.180Z,28.11
2018-09-11T12:27:18.484Z,28.23
2018-09-11T12:29:47.837Z,28.11
2018-09-11T12:32:17.163Z,28.04
2018-09-11T12:34:46.478Z,28.14
2018-09-11T12:37:16.999Z,28.21
2018-09-11T12:39:46.326Z,28.33
2018-09-11T12:42:15.600Z,28.35
2018-09-11T12:44:44.871Z,28.17
2018-09-11T12:47:14.772Z,28.17
2018-09-11T12:49:44.072Z,28.13
2018-09-11T12:52:13.356Z,28.08
2018-09-11T12:54:42.645Z,28.02
2018-09-11T12:57:11.973Z,27.81
2018-09-11T12:59:41.344Z,27.42
2018-09-11T13:02:10.986Z,27.04
2018-09-11T13:04:40.328Z,26.97
2018-09-11T13:07:09.600Z,26.90
2018-09-11T13:09:40.305Z,26.83
2018-09-11T13:12:09.637Z,26.84
2018-09-11T13:14:38.867Z,26.93
2018-09-11T13:17:08.196Z,27.02
2018-09-11T13:19:37.548Z,27.07
2018-09-11T13:22:06.841Z,27.11
2018-09-11T13:24:36.200Z,27.10
2018-09-11T13:27:05.447Z,27.07
2018-09-11T13:29:34.624Z,27.01
2018-09-11T13:32:03.864Z,26.91
2018-09-11T13:34:33.088Z,26.85
2018-09-11T13:37:02.325Z,26.83
2018-09-11T13:39:31.528Z,26.77
2018-09-11T13:42:00.765Z,26.73
2018-09-11T13:44:30.001Z,26.77
2018-09-11T13:46:59.312Z,26.77
2018-09-11T13:49:28.775Z,26.74
2018-09-11T13:51:57.981Z,26.76
2018-09-11T13:54:27.235Z,26.68
2018-09-11T13:56:56.444Z,26.56
2018-09-11T13:59:25.909Z,26.51
2018-09-11T14:01:55.857Z,26.46
2018-09-11T14:04:25.094Z,26.46
2018-09-11T14:06:54.336Z,26.36
2018-09-11T14:09:23.531Z,26.34
2018-09-11T14:11:52.725Z,26.31
2018-09-11T14:14:21.964Z,26.39
2018-09-11T14:16:51.178Z,26.45
2018-09-11T14:19:20.536Z,26.51
2018-09-11T14:21:50.187Z,26.61
2018-09-11T14:24:19.439Z,26.68
2018-09-11T14:26:48.776Z,26.76
2018-09-11T14:29:19.140Z,26.84
2018-09-11T14:31:48.507Z,26.85
2018-09-11T14:34:17.759Z,26.85
2018-09-11T14:36:48.196Z,26.81
2018-09-11T14:39:17.469Z,26.76
2018-09-11T14:41:46.716Z,26.70
2018-09-11T14:44:15.911Z,26.61
2018-09-11T14:46:45.244Z,26.50
2018-09-11T14:49:14.591Z,26.44
2018-09-11T14:51:43.889Z,26.34
2018-09-11T14:54:13.096Z,26.30
2018-09-11T14:56:42.573Z,26.26
2018-09-11T14:59:11.855Z,26.28
2018-09-11T15:01:41.246Z,26.35
2018-09-11T15:04:11.263Z,26.45
2018-09-11T15:06:40.670Z,26.60
2018-09-11T15:09:10.478Z,26.61
2018-09-11T15:11:40.353Z,26.70
2018-09-11T15:14:09.879Z,26.74
2018-09-11T15:16:39.149Z,26.79
2018-09-11T15:19:08.412Z,26.75
2018-09-11T15:21:39.433Z,26.75
2018-09-11T15:24:08.997Z,26.63
2018-09-11T15:26:38.213Z,26.50
2018-09-11T15:29:07.495Z,26.49
2018-09-11T15:31:37.026Z,26.45
2018-09-11T15:34:06.425Z,26.44
2018-09-11T15:36:35.621Z,26.33
2018-09-11T15:39:05.510Z,26.28
2018-09-11T15:41:36.339Z,26.18
2018-09-11T15:44:05.702Z,25.98
2018-09-11T15:46:35.104Z,25.80
2018-09-11T15:49:04.328Z,25.65
2018-09-11T15:51:33.520Z,25.50
2018-09-11T15:54:02.762Z,25.29
2018-09-11T15:56:31.966Z,25.23
2018-09-11T15:59:01.162Z,25.25
2018-09-11T16:01:30.337Z,25.23
2018-09-11T16:03:59.549Z,25.17
2018-09-11T16:06:28.771Z,25.12
2018-09-11T16:08:57.965Z,25.00
2018-09-11T16:11:27.189Z,24.89
2018-09-11T16:13:57.328Z,24.84
2018-09-11T16:16:26.606Z,24.78
2018-09-11T16:18:55.852Z,24.69
2018-09-11T16:21:25.068Z,24.63
2018-09-11T16:23:54.304Z,24.49
2018-09-11T16:26:23.518Z,24.38
2018-09-11T16:28:52.758Z,24.18
2018-09-11T16:31:21.960Z,23.99
2018-09-11T16:33:51.151Z,23.99
2018-09-11T16:36:20.328Z,24.02
2018-09-11T16:38:49.497Z,23.89
2018-09-11T16:41:18.720Z,23.79
2018-09-11T16:43:47.929Z,23.65
2018-09-11T16:46:17.120Z,23.56
2018-09-11T16:48:46.381Z,23.43
2018-09-11T16:51:15.585Z,23.22
2018-09-11T16:53:44.822Z,23.02
2018-09-11T16:56:14.037Z,22.87
2018-09-11T16:58:43.248Z,22.81
2018-09-11T17:01:12.447Z,22.65
2018-09-11T17:03:41.663Z,22.54
2018-09-11T17:06:11.324Z,22.61
2018-09-11T17:08:41.539Z,22.54
2018-09-11T17:11:11.013Z,22.40
2018-09-11T17:13:40.224Z,22.36
2018-09-11T17:16:09.798Z,22.33
2018-09-11T17:18:39.190Z,22.24
2018-09-11T17:21:08.435Z,22.16
2018-09-11T17:23:37.639Z,22.08
2018-09-11T17:26:06.867Z,22.05
2018-09-11T17:28:36.124Z,22.09
2018-09-11T17:31:05.467Z,21.98
2018-09-11T17:33:34.723Z,21.97
2018-09-11T17:36:03.945Z,21.91
2018-09-11T17:38:33.229Z,21.94
2018-09-11T17:41:02.418Z,21.86
2018-09-11T17:43:31.734Z,21.75
2018-09-11T17:46:00.989Z,21.67
2018-09-11T17:48:30.319Z,21.63
2018-09-11T17:50:59.687Z,21.55
2018-09-11T17:53:29.020Z,21.49
2018-09-11T17:55:58.297Z,21.45
2018-09-11T17:58:27.456Z,21.41
2018-09-11T18:00:56.642Z,21.38
2018-09-11T18:03:25.876Z,21.30
2018-09-11T18:05:55.081Z,21.12
2018-09-11T18:08:24.326Z,21.07
2018-09-11T18:10:53.610Z,21.07
2018-09-11T18:13:22.932Z,21.00
2018-09-11T18:15:52.196Z,21.00
2018-09-11T18:18:21.412Z,20.92
2018-09-11T18:20:51.362Z,20.86
2018-09-11T18:23:20.533Z,20.87
2018-09-11T18:25:50.485Z,20.76
2018-09-11T18:28:19.709Z,20.62
2018-09-11T18:30:48.932Z,20.56
2018-09-11T18:33:18.148Z,20.49
2018-09-11T18:35:47.353Z,20.44
2018-09-11T18:38:16.539Z,20.34
2018-09-11T18:40:45.749Z,20.25
2018-09-11T18:43:14.896Z,20.07
2018-09-11T18:45:44.154Z,19.93
2018-09-11T18:48:13.343Z,19.81
2018-09-11T18:50:42.530Z,19.72
2018-09-11T18:53:11.720Z,19.70
2018-09-11T18:55:40.933Z,19.63
2018-09-11T18:58:10.171Z,19.55
2018-09-11T19:00:39.493Z,19.46
2018-09-11T19:03:08.694Z,19.47
2018-09-11T19:05:37.865Z,19.44
2018-09-11T19:08:07.169Z,19.45
2018-09-11T19:10:36.352Z,19.40
2018-09-11T19:13:05.560Z,19.33
2018-09-11T19:15:34.877Z,19.28
2018-09-11T19:18:04.108Z,19.21
2018-09-11T19:20:33.285Z,19.14
2018-09-11T19:23:02.488Z,19.02
2018-09-11T19:25:36.177Z,18.90
2018-09-11T19:28:07.504Z,18.83
2018-09-11T19:30:36.394Z,18.72
2018-09-11T19:33:07.987Z,18.64
2018-09-11T19:35:41.737Z,18.55
2018-09-11T19:38:17.708Z,18.43
2018-09-11T19:40:52.109Z,18.31
2018-09-11T19:43:23.558Z,18.26
2018-09-11T19:45:52.896Z,18.26
2018-09-11T19:48:21.512Z,18.26
2018-09-11T19:50:50.096Z,18.18
2018-09-11T19:53:37.484Z,18.15
2018-09-11T19:56:15.951Z,18.13
2018-09-11T19:58:48.878Z,18.06
2018-09-11T20:01:30.289Z,18.04
2018-09-11T20:04:07.181Z,18.22
2018-09-11T20:06:38.943Z,18.26
2018-09-11T20:09:11.166Z,18.33
2018-09-11T20:11:40.016Z,18.37
2018-09-11T20:14:08.616Z,18.37
2018-09-11T20:16:37.294Z,18.42
2018-09-11T20:19:07.266Z,18.37
2018-09-11T20:21:35.885Z,18.22
2018-09-11T20:24:04.776Z,18.07
2018-09-11T20:26:37.109Z,17.95
2018-09-11T20:29:09.808Z,17.83
2018-09-11T20:31:38.696Z,17.75
2018-09-11T20:34:07.348Z,17.70
2018-09-11T20:36:36.500Z,17.59
2018-09-11T20:39:08.561Z,17.47
2018-09-11T20:41:37.380Z,17.47
2018-09-11T20:44:06.008Z,17.41
2018-09-11T20:46:34.618Z,17.28
2018-09-11T20:49:04.210Z,17.27
2018-09-11T20:51:32.845Z,17.17
2018-09-11T20:54:01.603Z,17.17
2018-09-11T20:56:30.392Z,17.26
2018-09-11T20:58:59.091Z,17.30
2018-09-11T21:01:27.706Z,17.36
2018-09-11T21:03:56.808Z,17.18
2018-09-11T21:06:25.477Z,17.01
2018-09-11T21:08:54.102Z,16.91
2018-09-11T21:11:22.737Z,16.83
2018-09-11T21:13:51.331Z,16.81
2018-09-11T21:16:19.973Z,16.73
2018-09-11T21:18:48.643Z,16.66
2018-09-11T21:21:17.232Z,16.65
2018-09-11T21:23:45.838Z,16.58
2018-09-11T21:26:14.497Z,16.53
2018-09-11T21:28:43.113Z,16.50
2018-09-11T21:31:11.768Z,16.51
2018-09-11T21:33:40.365Z,16.51
2018-09-11T21:36:08.976Z,16.53
2018-09-11T21:38:37.633Z,16.53
2018-09-11T21:41:06.553Z,16.60
2018-09-11T21:43:35.265Z,16.49
2018-09-11T21:46:03.940Z,16.37
2018-09-11T21:48:32.732Z,16.27
2018-09-11T21:51:01.344Z,16.20
2018-09-11T21:53:29.968Z,16.13
2018-09-11T21:56:00.788Z,16.08
2018-09-11T21:58:29.468Z,16.02
2018-09-11T22:01:02.653Z,16.07
2018-09-11T22:03:31.422Z,15.99
2018-09-11T22:06:00.080Z,15.91
2018-09-11T22:08:28.696Z,15.94
2018-09-11T22:10:57.301Z,15.86
2018-09-11T22:13:26.290Z,15.77
2018-09-11T22:15:55.236Z,15.76
2018-09-11T22:18:23.843Z,15.74
2018-09-11T22:20:52.551Z,15.66
2018-09-11T22:23:21.198Z,15.61
2018-09-11T22:25:49.860Z,15.61
2018-09-11T22:28:18.748Z,15.53
2018-09-11T22:30:47.418Z,15.53
2018-09-11T22:33:16.013Z,15.52
2018-09-11T22:35:44.684Z,15.50
2018-09-11T22:38:13.312Z,15.40
2018-09-11T22:40:41.977Z,15.29
2018-09-11T22:43:10.778Z,15.22
2018-09-11T22:45:39.584Z,15.16
2018-09-11T22:48:08.224Z,15.12
2018-09-11T22:50:36.984Z,15.09
2018-09-11T22:53:05.713Z,15.07
2018-09-11T22:55:34.362Z,15.06
2018-09-11T22:58:03.006Z,15.03
2018-09-11T23:00:31.595Z,15.00
2018-09-11T23:03:00.716Z,14.99
2018-09-11T23:05:29.325Z,14.95
2018-09-11T23:07:57.968Z,14.92
2018-09-11T23:10:26.579Z,14.86
2018-09-11T23:12:55.318Z,14.83
2018-09-11T23:15:24.060Z,14.82
2018-09-11T23:17:52.632Z,14.85
2018-09-11T23:20:21.429Z,14.88
2018-09-11T23:22:50.119Z,14.85
2018-09-11T23:25:19.236Z,14.86
2018-09-11T23:27:47.873Z,14.86
2018-09-11T23:30:16.584Z,14.90
2018-09-11T23:32:45.184Z,14.93
2018-09-11T23:35:13.821Z,14.97
2018-09-11T23:37:42.506Z,14.96
2018-09-11T23:40:11.212Z,14.94
2018-09-11T23:42:39.909Z,14.91
2018-09-11T23:45:08.506Z,14.87
2018-09-11T23:47:37.116Z,14.82
2018-09-11T23:50:06.165Z,14.78
2018-09-11T23:52:35.308Z,14.79
2018-09-11T23:55:04.259Z,14.79
2018-09-11T23:57:33.084Z,14.77
